Monteview, Idaho
Current Conditions -  °F | °C
As of 11:53 PM on Wednesday 17 Dec 2014 (Local Time) from KRXE Reporting Station
Overcast Overcast  
Wind Chill: 27°   Ceiling: 4200
Heat Index: 27°   Visibility: 9mi
Dew Point: 25°   Wind: 0mph
Humidity: 92%   Direction: NA
Pressure: 30.06"   Gusts: NA
Location:  43.94°N, 112.54°W
Report Text: KRXE 180653Z AUTO 00000KT 9SM OVC042 M03/M04 A3006 RMK AO2 SLP204 T10281039 400221033
Loading
Personal Weather Stations






























Interactive Weather Map New forecast layout! Learn more

10-Day Weather Forecast

Advertisements
Track Severe Weather on mobile